KRIV

March ARB Airport

Riverside, California, USA
METAR KRIV 170358Z AUTO 00000KT 10SM CLR 16/M05 A3006 RMK AO2 SLP172 T01631049 PNO $
Observed Flight Rules
Oct-17 @ 03:58 UTC (an hour ago) Visual Flight Rules
Visibility Clouds
10 miles
  • Clear skies
Temperatures Readings
Current 16°C / 61°F
Dewpoint -5°C / 23°F
Humidity 23%
Altimeter 30.06" Hg
Pressure 1017.2 hPa
Elevation 469
METAR KRIV 170358Z AUTO 00000KT 10SM CLR 16/M05 A3006 RMK AO2 SLP172 T01631049 PNO $
Observed Flight Rules
Oct-17 @ 03:58 UTC
(an hour ago)
VFR
Clouds
  • Clear skies
Temperature Dewpoint
16°C / 61°F -5°C / 23°F
Humidity Altimeter Pressure
23% 30.06" Hg 1017.2 hPa